Time;durP1;ratioP1;P1;durP2;ratioP2;P2;SDS_P1;SDS_P2;PMS_P1;PMS_P2;Temp;Humidity;BMP_temperature;BMP_pressure;BME280_temperature;BME280_humidity;BME280_pressure;Samples;Min_cycle;Max_cycle;Signal;HPM_P1;HPM_P2
2022/04/24 00:01:34;;;;;;;20.50;18.40;;;;;;;;;;5075896;28;20456;-77
2022/04/24 00:04:01;;;;;;;18.90;17.10;;;;;;;;;;5075833;28;20543;-77
2022/04/24 00:06:31;;;;;;;19.23;17.43;;;;;;;;;;5073721;28;20495;-78
2022/04/24 00:08:58;;;;;;;19.43;17.43;;;;;;;;;;5072935;28;21174;-77
2022/04/24 00:11:27;;;;;;;18.03;16.30;;;;;;;;;;5074256;28;20829;-78
2022/04/24 00:13:54;;;;;;;18.60;16.80;;;;;;;;;;5077710;28;20451;-78
2022/04/24 00:16:21;;;;;;;20.00;18.00;;;;;;;;;;5076540;28;20464;-78
2022/04/24 00:18:48;;;;;;;18.50;16.70;;;;;;;;;;5071252;28;20814;-78
2022/04/24 00:21:15;;;;;;;19.03;17.23;;;;;;;;;;5072378;28;20440;-79
2022/04/24 00:23:43;;;;;;;19.27;17.37;;;;;;;;;;5072480;28;20441;-78
2022/04/24 00:26:10;;;;;;;18.80;17.00;;;;;;;;;;5073549;28;20526;-77
2022/04/24 00:28:39;;;;;;;18.60;16.73;;;;;;;;;;5078816;28;20484;-77
2022/04/24 00:31:06;;;;;;;20.30;18.30;;;;;;;;;;5079960;28;20459;-77
2022/04/24 00:33:33;;;;;;;18.57;16.70;;;;;;;;;;5080528;28;20451;-77
2022/04/24 00:36:00;;;;;;;18.67;16.77;;;;;;;;;;5083233;28;20465;-78
2022/04/24 00:38:27;;;;;;;18.80;16.80;;;;;;;;;;5081745;28;20517;-78
2022/04/24 00:40:54;;;;;;;19.23;17.23;;;;;;;;;;5080011;28;20440;-77
2022/04/24 00:43:21;;;;;;;19.73;17.10;;;;;;;;;;5078925;28;20453;-75
2022/04/24 00:45:50;;;;;;;19.23;17.33;;;;;;;;;;5075293;28;21026;-78
2022/04/24 00:48:17;;;;;;;18.60;16.80;;;;;;;;;;5072356;28;20999;-78
2022/04/24 00:50:44;;;;;;;18.43;16.60;;;;;;;;;;5073063;28;20455;-80
2022/04/24 00:53:12;;;;;;;19.17;17.37;;;;;;;;;;5073097;28;20864;-78
2022/04/24 00:55:39;;;;;;;18.60;16.80;;;;;;;;;;5071603;28;20465;-79
2022/04/24 00:58:06;;;;;;;20.73;18.63;;;;;;;;;;5072556;28;20432;-77
2022/04/24 01:00:33;;;;;;;20.93;16.43;;;;;;;;;;5073111;28;20440;-78
2022/04/24 01:03:02;;;;;;;18.67;16.90;;;;;;;;;;5073347;28;20449;-76
2022/04/24 01:05:30;;;;;;;20.20;18.10;;;;;;;;;;5071861;28;20469;-79
2022/04/24 01:07:57;;;;;;;18.97;17.17;;;;;;;;;;5071471;28;20542;-77
2022/04/24 01:10:24;;;;;;;20.80;18.70;;;;;;;;;;5071449;28;20452;-77
2022/04/24 01:12:51;;;;;;;18.77;16.87;;;;;;;;;;5071204;28;20436;-78
2022/04/24 01:15:18;;;;;;;21.37;19.17;;;;;;;;;;5071325;28;20457;-77
2022/04/24 01:17:45;;;;;;;17.73;16.03;;;;;;;;;;5071639;28;20437;-77
2022/04/24 01:20:14;;;;;;;18.57;16.80;;;;;;;;;;5071822;28;20452;-78
2022/04/24 01:22:43;;;;;;;19.47;17.63;;;;;;;;;;5071071;28;20951;-77
2022/04/24 01:25:10;;;;;;;20.33;18.23;;;;;;;;;;5071036;28;20441;-79
2022/04/24 01:27:37;;;;;;;20.57;18.63;;;;;;;;;;5071270;28;20485;-77
2022/04/24 01:30:06;;;;;;;18.07;16.37;;;;;;;;;;5071354;28;20449;-78
2022/04/24 01:32:33;;;;;;;19.37;17.57;;;;;;;;;;5071325;28;20482;-79
2022/04/24 01:35:01;;;;;;;19.10;17.27;;;;;;;;;;5071180;28;20498;-80
2022/04/24 01:37:28;;;;;;;18.87;16.97;;;;;;;;;;5071262;28;20441;-78
2022/04/24 01:39:57;;;;;;;18.20;16.43;;;;;;;;;;5071319;28;20448;-79
2022/04/24 01:42:24;;;;;;;18.83;16.90;;;;;;;;;;5071413;28;20452;-77
2022/04/24 01:44:51;;;;;;;18.13;16.33;;;;;;;;;;5071207;28;20531;-77
2022/04/24 01:47:18;;;;;;;18.27;16.23;;;;;;;;;;5071031;28;20447;-77
2022/04/24 01:49:46;;;;;;;18.87;16.97;;;;;;;;;;5071282;28;20796;-78
2022/04/24 01:52:13;;;;;;;19.10;17.07;;;;;;;;;;5071176;28;20436;-77
2022/04/24 01:54:40;;;;;;;17.20;15.60;;;;;;;;;;5070795;28;20874;-77
2022/04/24 01:57:08;;;;;;;17.27;15.63;;;;;;;;;;5070669;28;20487;-77
2022/04/24 01:59:35;;;;;;;17.80;16.10;;;;;;;;;;5070457;28;20455;-78
2022/04/24 02:02:02;;;;;;;18.23;16.43;;;;;;;;;;5070423;28;20515;-77
2022/04/24 02:04:29;;;;;;;16.57;15.07;;;;;;;;;;5069805;28;20428;-79
2022/04/24 02:06:56;;;;;;;19.00;17.10;;;;;;;;;;5069856;28;20980;-80
2022/04/24 02:09:23;;;;;;;18.40;16.70;;;;;;;;;;5069991;28;20484;-78
2022/04/24 02:11:51;;;;;;;16.77;15.07;;;;;;;;;;5070292;28;20444;-78
2022/04/24 02:14:20;;;;;;;19.10;17.30;;;;;;;;;;5069599;28;20449;-79
2022/04/24 02:16:47;;;;;;;18.50;16.70;;;;;;;;;;5069918;28;20578;-78
2022/04/24 02:19:14;;;;;;;17.60;15.90;;;;;;;;;;5069817;28;21011;-78
2022/04/24 02:21:41;;;;;;;17.33;15.50;;;;;;;;;;5070092;28;20963;-78
2022/04/24 02:24:08;;;;;;;17.17;15.43;;;;;;;;;;5069883;28;20444;-78
2022/04/24 02:26:35;;;;;;;18.20;16.53;;;;;;;;;;5069665;28;20453;-77
2022/04/24 02:29:02;;;;;;;18.93;17.13;;;;;;;;;;5069812;28;20476;-78
2022/04/24 02:31:31;;;;;;;18.50;16.80;;;;;;;;;;5069910;28;20448;-78
2022/04/24 02:33:58;;;;;;;19.90;17.13;;;;;;;;;;5069398;28;20913;-79
2022/04/24 02:36:25;;;;;;;19.13;17.20;;;;;;;;;;5069664;28;20460;-78
2022/04/24 02:38:52;;;;;;;19.33;17.40;;;;;;;;;;5073394;28;20449;-77
2022/04/24 02:41:19;;;;;;;19.40;17.47;;;;;;;;;;5074075;28;20433;-77
2022/04/24 02:43:46;;;;;;;19.27;17.10;;;;;;;;;;5072993;28;20452;-79
2022/04/24 02:46:13;;;;;;;19.30;17.37;;;;;;;;;;5076493;28;20469;-76
2022/04/24 02:48:41;;;;;;;20.47;18.37;;;;;;;;;;5075521;28;20956;-79
2022/04/24 02:51:08;;;;;;;19.63;17.73;;;;;;;;;;5073594;28;20460;-77
2022/04/24 02:53:35;;;;;;;21.00;18.80;;;;;;;;;;5072742;28;20444;-77
2022/04/24 02:56:02;;;;;;;21.73;19.37;;;;;;;;;;5073166;28;20494;-79
2022/04/24 02:58:29;;;;;;;20.33;17.57;;;;;;;;;;5073305;28;20444;-78
2022/04/24 03:00:56;;;;;;;21.53;19.43;;;;;;;;;;5074869;28;20448;-77
2022/04/24 03:03:23;;;;;;;22.07;19.97;;;;;;;;;;5075337;28;20494;-77
2022/04/24 03:05:52;;;;;;;20.63;18.63;;;;;;;;;;5073454;28;20464;-78
2022/04/24 03:08:20;;;;;;;20.87;18.57;;;;;;;;;;5076937;28;20479;-77
2022/04/24 03:10:47;;;;;;;22.00;19.70;;;;;;;;;;5077002;28;20449;-79
2022/04/24 03:13:14;;;;;;;20.53;18.43;;;;;;;;;;5074247;28;20774;-78
2022/04/24 03:15:41;;;;;;;21.43;19.37;;;;;;;;;;5072870;28;20472;-78
2022/04/24 03:18:08;;;;;;;20.83;18.63;;;;;;;;;;5072512;28;20908;-76
2022/04/24 03:20:35;;;;;;;21.97;19.83;;;;;;;;;;5072564;28;20472;-78
2022/04/24 03:23:04;;;;;;;21.37;19.13;;;;;;;;;;5072806;28;20444;-77
2022/04/24 03:25:34;;;;;;;21.93;19.73;;;;;;;;;;5072455;28;20468;-77
2022/04/24 03:28:01;;;;;;;21.70;19.40;;;;;;;;;;5072028;28;20468;-77
2022/04/24 03:30:28;;;;;;;23.23;20.83;;;;;;;;;;5072518;28;20505;-77
2022/04/24 03:32:55;;;;;;;22.17;19.87;;;;;;;;;;5071851;28;20816;-77
2022/04/24 03:35:22;;;;;;;22.47;20.17;;;;;;;;;;5074104;28;20468;-77
2022/04/24 03:37:49;;;;;;;22.40;20.27;;;;;;;;;;5077281;28;20506;-77
2022/04/24 03:40:19;;;;;;;21.27;19.17;;;;;;;;;;5077404;28;20449;-79
2022/04/24 03:42:47;;;;;;;20.33;18.33;;;;;;;;;;5077103;28;20448;-78
2022/04/24 03:45:14;;;;;;;22.70;20.40;;;;;;;;;;5076959;28;20473;-76
2022/04/24 03:47:41;;;;;;;22.83;20.50;;;;;;;;;;5072091;28;20962;-76
2022/04/24 03:50:08;;;;;;;24.60;20.80;;;;;;;;;;5071315;28;20488;-77
2022/04/24 03:52:35;;;;;;;22.37;20.03;;;;;;;;;;5071726;28;20453;-79
2022/04/24 03:55:02;;;;;;;22.80;20.47;;;;;;;;;;5071853;28;20499;-76
2022/04/24 03:57:31;;;;;;;23.10;20.70;;;;;;;;;;5072023;28;20449;-77
2022/04/24 03:59:58;;;;;;;22.37;20.17;;;;;;;;;;5073077;28;20468;-77
2022/04/24 04:02:25;;;;;;;21.67;19.57;;;;;;;;;;5072127;28;20456;-78
2022/04/24 04:04:52;;;;;;;21.90;19.53;;;;;;;;;;5071718;28;20448;-77
2022/04/24 04:07:20;;;;;;;24.60;22.10;;;;;;;;;;5071671;28;20460;-78
2022/04/24 04:09:48;;;;;;;23.67;21.20;;;;;;;;;;5071108;28;20484;-77
2022/04/24 04:12:15;;;;;;;23.20;20.83;;;;;;;;;;5071514;28;20448;-77
2022/04/24 04:14:43;;;;;;;24.00;21.60;;;;;;;;;;5071248;28;20460;-78
2022/04/24 04:17:10;;;;;;;23.47;20.47;;;;;;;;;;5071603;28;20471;-76
2022/04/24 04:19:48;;;;;;;23.50;20.50;;;;;;;;;;5071433;28;20456;-78
2022/04/24 04:22:15;;;;;;;24.10;21.70;;;;;;;;;;5071222;28;20449;-78
2022/04/24 04:24:42;;;;;;;23.87;21.40;;;;;;;;;;5071277;28;20456;-77
2022/04/24 04:27:10;;;;;;;24.50;21.90;;;;;;;;;;5070778;28;20991;-78
2022/04/24 04:29:37;;;;;;;23.80;21.40;;;;;;;;;;5071037;28;20465;-77
2022/04/24 04:32:06;;;;;;;26.50;23.70;;;;;;;;;;5071112;28;20959;-80
2022/04/24 04:34:33;;;;;;;23.83;21.23;;;;;;;;;;5070696;28;20444;-78
2022/04/24 04:37:00;;;;;;;26.20;22.70;;;;;;;;;;5070983;28;20471;-77
2022/04/24 04:39:27;;;;;;;27.67;24.27;;;;;;;;;;5072621;28;20951;-75
2022/04/24 04:41:54;;;;;;;30.27;25.17;;;;;;;;;;5079687;28;20439;-78
2022/04/24 04:44:21;;;;;;;22.83;20.43;;;;;;;;;;5070773;28;20491;-79
2022/04/24 04:46:48;;;;;;;23.00;17.90;;;;;;;;;;5071043;28;20473;-77
2022/04/24 04:49:16;;;;;;;19.73;15.10;;;;;;;;;;5070858;28;20481;-78
2022/04/24 04:51:44;;;;;;;11.80;10.07;;;;;;;;;;5070965;28;20448;-76
2022/04/24 04:54:11;;;;;;;5.93;5.33;;;;;;;;;;5070232;28;20953;-77
2022/04/24 04:56:39;;;;;;;4.67;3.47;;;;;;;;;;5070416;28;20460;-78
2022/04/24 04:59:06;;;;;;;3.23;2.50;;;;;;;;;;5070871;28;20447;-78
2022/04/24 05:01:33;;;;;;;1.67;1.57;;;;;;;;;;5069690;28;20536;-77
2022/04/24 05:04:00;;;;;;;1.80;1.70;;;;;;;;;;5070177;28;20514;-76
2022/04/24 05:06:28;;;;;;;1.40;1.30;;;;;;;;;;5070414;28;20457;-76
2022/04/24 05:08:55;;;;;;;1.10;1.10;;;;;;;;;;5070637;28;21029;-77
2022/04/24 05:11:22;;;;;;;1.30;1.17;;;;;;;;;;5071419;28;20936;-76
2022/04/24 05:13:49;;;;;;;1.00;0.90;;;;;;;;;;5071542;28;20447;-77
2022/04/24 05:16:16;;;;;;;1.20;0.93;;;;;;;;;;5070907;28;20866;-76
2022/04/24 05:18:43;;;;;;;0.70;0.70;;;;;;;;;;5071001;28;21299;-77
2022/04/24 05:21:10;;;;;;;0.70;0.70;;;;;;;;;;5072136;28;20448;-79
2022/04/24 05:23:42;;;;;;;0.80;0.70;;;;;;;;;;5071664;28;20444;-78
2022/04/24 05:26:09;;;;;;;1.10;0.50;;;;;;;;;;5070686;28;20464;-77
2022/04/24 05:28:36;;;;;;;0.80;0.80;;;;;;;;;;5070254;28;20484;-77
2022/04/24 05:31:03;;;;;;;0.43;0.43;;;;;;;;;;5070217;28;20456;-77
2022/04/24 05:33:30;;;;;;;0.50;0.50;;;;;;;;;;5081572;28;20962;-78
2022/04/24 05:35:57;;;;;;;2.73;0.60;;;;;;;;;;5090346;28;20467;-76
2022/04/24 05:38:24;;;;;;;0.50;0.50;;;;;;;;;;5090409;28;20446;-76
2022/04/24 05:40:52;;;;;;;0.70;0.70;;;;;;;;;;5090214;28;20462;-77
2022/04/24 05:43:19;;;;;;;0.73;0.70;;;;;;;;;;5090160;28;20469;-78
2022/04/24 05:45:46;;;;;;;0.73;0.60;;;;;;;;;;5090019;28;20463;-77
2022/04/24 05:48:14;;;;;;;0.60;0.60;;;;;;;;;;5090601;28;20447;-74
2022/04/24 05:50:41;;;;;;;1.17;0.50;;;;;;;;;;5090341;28;20486;-75
2022/04/24 05:53:08;;;;;;;0.77;0.70;;;;;;;;;;5090564;28;20879;-75
2022/04/24 05:55:35;;;;;;;0.80;0.50;;;;;;;;;;5090973;28;20471;-76
2022/04/24 05:58:04;;;;;;;1.03;0.50;;;;;;;;;;5090368;28;20451;-77
2022/04/24 06:00:31;;;;;;;0.80;0.80;;;;;;;;;;5090150;28;20444;-74
2022/04/24 06:02:58;;;;;;;2.80;0.90;;;;;;;;;;5089938;28;20970;-79
2022/04/24 06:05:25;;;;;;;0.50;0.50;;;;;;;;;;5090309;28;20474;-75
2022/04/24 06:07:53;;;;;;;0.63;0.63;;;;;;;;;;5090274;28;20443;-75
2022/04/24 06:10:20;;;;;;;0.87;0.60;;;;;;;;;;5090878;28;20485;-74
2022/04/24 06:12:48;;;;;;;0.50;0.50;;;;;;;;;;5092991;28;20447;-76
2022/04/24 06:15:18;;;;;;;0.53;0.53;;;;;;;;;;5095453;28;20463;-75
2022/04/24 06:17:46;;;;;;;0.50;0.50;;;;;;;;;;5095179;28;20450;-75
2022/04/24 06:20:13;;;;;;;0.80;0.80;;;;;;;;;;5094392;28;20532;-77
2022/04/24 06:22:44;;;;;;;0.60;0.60;;;;;;;;;;5094056;28;20448;-76
2022/04/24 06:25:11;;;;;;;0.50;0.50;;;;;;;;;;5094132;28;20449;-78
2022/04/24 06:27:38;;;;;;;0.60;0.60;;;;;;;;;;5093774;28;20446;-76
2022/04/24 06:30:05;;;;;;;0.63;0.63;;;;;;;;;;5093886;28;20486;-77
2022/04/24 06:32:39;;;;;;;1.77;0.70;;;;;;;;;;5093974;28;20455;-78
2022/04/24 06:35:06;;;;;;;1.97;1.40;;;;;;;;;;5093600;28;20479;-77
2022/04/24 06:37:33;;;;;;;0.97;0.50;;;;;;;;;;5093754;28;20443;-75
2022/04/24 06:40:00;;;;;;;0.47;0.47;;;;;;;;;;5093307;28;20447;-76
2022/04/24 06:42:27;;;;;;;0.93;0.40;;;;;;;;;;5093246;28;20961;-77
2022/04/24 06:44:57;;;;;;;0.50;0.50;;;;;;;;;;5093559;28;20477;-76
2022/04/24 06:47:24;;;;;;;0.90;0.63;;;;;;;;;;5093548;28;20474;-75
2022/04/24 06:49:52;;;;;;;0.80;0.80;;;;;;;;;;5090644;28;20482;-78
2022/04/24 06:52:20;;;;;;;0.67;0.67;;;;;;;;;;5095488;28;20451;-77
2022/04/24 06:54:47;;;;;;;0.53;0.53;;;;;;;;;;5095529;28;20449;-78
2022/04/24 06:57:14;;;;;;;0.50;0.50;;;;;;;;;;5093410;28;20557;-76
2022/04/24 06:59:41;;;;;;;1.33;0.60;;;;;;;;;;5093363;28;20463;-77
2022/04/24 07:02:08;;;;;;;0.60;0.60;;;;;;;;;;5093448;28;20451;-76
2022/04/24 07:04:35;;;;;;;0.60;0.60;;;;;;;;;;5095654;28;20449;-75
2022/04/24 07:07:04;;;;;;;0.50;0.50;;;;;;;;;;5093858;28;20470;-76
2022/04/24 07:09:31;;;;;;;0.50;0.50;;;;;;;;;;5093349;28;20511;-79
2022/04/24 07:11:58;;;;;;;0.70;0.70;;;;;;;;;;5093359;28;20446;-76
2022/04/24 07:14:25;;;;;;;0.70;0.70;;;;;;;;;;5093362;28;20447;-75
2022/04/24 07:16:52;;;;;;;0.60;0.60;;;;;;;;;;5093414;28;21137;-76
2022/04/24 07:19:20;;;;;;;0.60;0.60;;;;;;;;;;5093292;28;20442;-78
2022/04/24 07:21:48;;;;;;;0.70;0.70;;;;;;;;;;5093893;28;20452;-76
2022/04/24 07:24:16;;;;;;;0.87;0.67;;;;;;;;;;5092029;28;20530;-78
2022/04/24 07:26:44;;;;;;;0.60;0.60;;;;;;;;;;5092803;28;20495;-77
2022/04/24 07:29:11;;;;;;;1.57;0.53;;;;;;;;;;5092822;28;20454;-78
2022/04/24 07:31:38;;;;;;;0.60;0.60;;;;;;;;;;5092717;28;20791;-78
2022/04/24 07:34:05;;;;;;;0.80;0.80;;;;;;;;;;5092485;28;20531;-75
2022/04/24 07:36:32;;;;;;;0.70;0.70;;;;;;;;;;5092309;28;20471;-76
2022/04/24 07:38:59;;;;;;;1.13;0.60;;;;;;;;;;5092761;28;20447;-78
2022/04/24 07:41:27;;;;;;;0.70;0.70;;;;;;;;;;5092570;28;20883;-76
2022/04/24 07:43:54;;;;;;;0.60;0.60;;;;;;;;;;5092316;28;20451;-76
2022/04/24 07:46:23;;;;;;;0.80;0.63;;;;;;;;;;5092171;28;20986;-76
2022/04/24 07:48:50;;;;;;;1.23;0.57;;;;;;;;;;5092450;28;20572;-79
2022/04/24 07:51:17;;;;;;;0.97;0.70;;;;;;;;;;5092660;28;20479;-76
2022/04/24 07:53:44;;;;;;;0.53;0.53;;;;;;;;;;5093676;28;20450;-76
2022/04/24 07:56:11;;;;;;;1.23;1.23;;;;;;;;;;5094888;28;20819;-75
2022/04/24 07:58:40;;;;;;;0.90;0.90;;;;;;;;;;5092579;28;20439;-76
2022/04/24 08:01:07;;;;;;;1.73;0.43;;;;;;;;;;5092218;28;20460;-76
2022/04/24 08:03:34;;;;;;;0.50;0.50;;;;;;;;;;5091489;28;20841;-78
2022/04/24 08:06:01;;;;;;;0.60;0.60;;;;;;;;;;5080608;28;20526;-77
2022/04/24 08:08:28;;;;;;;0.80;0.80;;;;;;;;;;5090643;28;20939;-78
2022/04/24 08:10:56;;;;;;;1.10;1.10;;;;;;;;;;5092073;28;20475;-75
2022/04/24 08:13:24;;;;;;;1.07;0.93;;;;;;;;;;5091753;28;20474;-76
2022/04/24 08:15:53;;;;;;;1.20;1.20;;;;;;;;;;5092171;28;20470;-75
2022/04/24 08:18:20;;;;;;;1.80;1.17;;;;;;;;;;5092167;28;20505;-75
2022/04/24 08:20:47;;;;;;;1.20;1.20;;;;;;;;;;5092009;28;20446;-77
2022/04/24 08:23:16;;;;;;;0.93;0.93;;;;;;;;;;5091166;28;20951;-77
2022/04/24 08:25:43;;;;;;;0.80;0.80;;;;;;;;;;5091513;28;20471;-75
2022/04/24 08:28:11;;;;;;;0.77;0.77;;;;;;;;;;5091560;28;20451;-77
2022/04/24 08:30:40;;;;;;;0.77;0.77;;;;;;;;;;5091682;28;20475;-77
2022/04/24 08:33:08;;;;;;;0.77;0.77;;;;;;;;;;5091128;28;20440;-75
2022/04/24 08:35:35;;;;;;;0.70;0.70;;;;;;;;;;5090812;28;20468;-76
2022/04/24 08:38:02;;;;;;;0.70;0.70;;;;;;;;;;5091109;28;20520;-76
2022/04/24 08:40:29;;;;;;;3.07;1.20;;;;;;;;;;5091307;28;20439;-78
2022/04/24 08:42:57;;;;;;;1.17;1.07;;;;;;;;;;5090766;28;20954;-78
2022/04/24 08:45:25;;;;;;;1.17;1.00;;;;;;;;;;5091259;28;20471;-76
2022/04/24 08:47:53;;;;;;;1.00;0.90;;;;;;;;;;5091376;28;20450;-75
2022/04/24 08:50:21;;;;;;;1.00;1.00;;;;;;;;;;5091268;28;20513;-78
2022/04/24 08:52:48;;;;;;;1.13;1.00;;;;;;;;;;5090885;28;20794;-75
2022/04/24 08:55:16;;;;;;;0.80;0.80;;;;;;;;;;5090779;28;21074;-76
2022/04/24 08:57:44;;;;;;;1.20;1.20;;;;;;;;;;5091085;28;20451;-76
2022/04/24 09:00:11;;;;;;;1.10;1.03;;;;;;;;;;5092101;28;20805;-77
2022/04/24 09:02:38;;;;;;;0.90;0.90;;;;;;;;;;5091856;28;20439;-77
2022/04/24 09:05:07;;;;;;;1.23;1.07;;;;;;;;;;5091013;28;20440;-77
2022/04/24 09:07:36;;;;;;;1.57;1.10;;;;;;;;;;5090928;28;20973;-75
2022/04/24 09:10:05;;;;;;;1.00;1.00;;;;;;;;;;5087932;28;20514;-77
2022/04/24 09:12:32;;;;;;;1.00;0.90;;;;;;;;;;5073972;28;20456;-76
2022/04/24 09:15:00;;;;;;;1.10;1.10;;;;;;;;;;5090787;28;20455;-78
2022/04/24 09:17:28;;;;;;;1.27;1.17;;;;;;;;;;5092344;28;20443;-78
2022/04/24 09:19:56;;;;;;;1.17;1.07;;;;;;;;;;5079835;28;20448;-79
2022/04/24 09:22:23;;;;;;;1.00;0.93;;;;;;;;;;5080751;28;20526;-75
2022/04/24 09:24:54;;;;;;;0.80;0.80;;;;;;;;;;5091221;28;20942;-76
2022/04/24 09:27:25;;;;;;;0.90;0.90;;;;;;;;;;5090246;28;21053;-76
2022/04/24 09:29:54;;;;;;;0.90;0.90;;;;;;;;;;5090258;28;20562;-75
2022/04/24 09:32:21;;;;;;;1.30;1.20;;;;;;;;;;5090234;28;20452;-78
2022/04/24 09:34:48;;;;;;;1.30;1.20;;;;;;;;;;5090083;28;20842;-76
2022/04/24 09:37:15;;;;;;;1.43;1.03;;;;;;;;;;5089802;28;20545;-77
2022/04/24 09:39:42;;;;;;;2.30;2.20;;;;;;;;;;5090574;28;20444;-74
2022/04/24 09:42:11;;;;;;;1.90;1.73;;;;;;;;;;5090404;28;20443;-76
2022/04/24 09:44:39;;;;;;;1.10;1.10;;;;;;;;;;5090013;28;20447;-77
2022/04/24 09:47:07;;;;;;;1.93;1.30;;;;;;;;;;5091899;28;20455;-75
2022/04/24 09:49:36;;;;;;;1.10;1.10;;;;;;;;;;5094730;28;20451;-75
2022/04/24 09:52:04;;;;;;;1.17;1.17;;;;;;;;;;5094295;28;21006;-77
2022/04/24 09:54:31;;;;;;;1.10;1.10;;;;;;;;;;5094394;28;20439;-76
2022/04/24 09:56:59;;;;;;;1.23;1.13;;;;;;;;;;5094248;28;20955;-77
2022/04/24 09:59:27;;;;;;;2.40;2.20;;;;;;;;;;5094345;28;20448;-76
2022/04/24 10:01:54;;;;;;;1.40;1.03;;;;;;;;;;5093933;28;20451;-77
2022/04/24 10:04:22;;;;;;;1.30;1.20;;;;;;;;;;5093966;28;20850;-78
2022/04/24 10:06:49;;;;;;;1.40;1.30;;;;;;;;;;5093895;28;21273;-77
2022/04/24 10:09:16;;;;;;;1.50;1.40;;;;;;;;;;5093743;28;20981;-75
2022/04/24 10:11:44;;;;;;;1.40;1.30;;;;;;;;;;5093537;28;21002;-77
2022/04/24 10:14:13;;;;;;;1.53;1.47;;;;;;;;;;5093765;28;20448;-77
2022/04/24 10:16:59;;;;;;;1.93;1.40;;;;;;;;;;5093689;28;20466;-78
2022/04/24 10:19:33;;;;;;;2.00;1.37;;;;;;;;;;5093869;28;20458;-78
2022/04/24 10:22:05;;;;;;;1.87;1.67;;;;;;;;;;5093844;28;20484;-75
2022/04/24 10:24:42;;;;;;;1.40;1.30;;;;;;;;;;5093407;28;20428;-76
2022/04/24 10:27:11;;;;;;;1.40;1.30;;;;;;;;;;5090611;28;20482;-75
2022/04/24 10:29:38;;;;;;;1.70;1.60;;;;;;;;;;5077172;28;20575;-77
2022/04/24 10:32:05;;;;;;;2.10;1.47;;;;;;;;;;5074250;28;20534;-78
2022/04/24 10:34:41;;;;;;;1.60;1.50;;;;;;;;;;5075910;28;20447;-74
2022/04/24 10:37:08;;;;;;;1.70;1.60;;;;;;;;;;5080635;28;20467;-75
2022/04/24 10:39:35;;;;;;;1.70;1.60;;;;;;;;;;5093312;28;20447;-76
2022/04/24 10:42:08;;;;;;;1.60;1.53;;;;;;;;;;5093835;28;20943;-77
2022/04/24 10:44:35;;;;;;;3.03;2.63;;;;;;;;;;5093989;28;20416;-78
2022/04/24 10:47:11;;;;;;;3.10;2.80;;;;;;;;;;5093741;28;20460;-77
2022/04/24 10:49:40;;;;;;;2.90;2.10;;;;;;;;;;5093762;28;20447;-78
2022/04/24 10:52:07;;;;;;;1.93;1.83;;;;;;;;;;5093385;28;20487;-76
2022/04/24 10:54:37;;;;;;;1.63;1.53;;;;;;;;;;5093237;28;20482;-75
2022/04/24 10:57:16;;;;;;;2.67;2.57;;;;;;;;;;5093827;28;20821;-76
2022/04/24 10:59:48;;;;;;;1.67;1.57;;;;;;;;;;5092409;28;20447;-76
2022/04/24 11:02:15;;;;;;;1.80;1.70;;;;;;;;;;5093587;28;20942;-75
2022/04/24 11:04:44;;;;;;;1.43;1.33;;;;;;;;;;5093092;28;20528;-76
2022/04/24 11:07:21;;;;;;;2.80;1.80;;;;;;;;;;5093441;28;20464;-78
2022/04/24 11:09:48;;;;;;;1.80;1.70;;;;;;;;;;5093096;28;20454;-78
2022/04/24 11:12:15;;;;;;;1.23;1.23;;;;;;;;;;5093016;28;20471;-76
2022/04/24 11:14:42;;;;;;;3.60;1.50;;;;;;;;;;5090246;28;20459;-79
2022/04/24 11:17:10;;;;;;;1.50;1.10;;;;;;;;;;5092931;28;20456;-77
2022/04/24 11:19:38;;;;;;;1.57;1.43;;;;;;;;;;5093294;28;20491;-76
2022/04/24 11:22:08;;;;;;;1.50;1.40;;;;;;;;;;5093631;28;20995;-75
2022/04/24 11:24:37;;;;;;;1.90;1.80;;;;;;;;;;5092112;28;20444;-77
2022/04/24 11:27:05;;;;;;;1.70;1.60;;;;;;;;;;5092764;28;20520;-77
2022/04/24 11:29:33;;;;;;;1.40;1.30;;;;;;;;;;5075610;28;20951;-77
2022/04/24 11:32:02;;;;;;;1.93;1.53;;;;;;;;;;5087377;28;20484;-77
2022/04/24 11:34:29;;;;;;;1.73;1.63;;;;;;;;;;5080204;28;20563;-77
2022/04/24 11:36:57;;;;;;;1.03;1.03;;;;;;;;;;5079515;28;20476;-76
2022/04/24 11:39:26;;;;;;;1.40;1.30;;;;;;;;;;5088535;28;20863;-77
2022/04/24 11:41:53;;;;;;;1.10;1.00;;;;;;;;;;5071981;28;20440;-76
2022/04/24 11:52:37;;;;;;;0.80;0.80;;;;;;;;;;5091616;28;20526;-78
2022/04/24 11:55:07;;;;;;;1.23;1.07;;;;;;;;;;5078548;28;20477;-76
2022/04/24 11:57:34;;;;;;;0.93;0.90;;;;;;;;;;5089746;28;20454;-78
2022/04/24 12:00:03;;;;;;;1.30;1.20;;;;;;;;;;5089995;28;20436;-76
2022/04/24 12:02:30;;;;;;;2.60;0.97;;;;;;;;;;5074715;28;20531;-76
2022/04/24 12:04:57;;;;;;;0.90;0.90;;;;;;;;;;5092058;28;20444;-76
2022/04/24 12:07:30;;;;;;;1.90;0.97;;;;;;;;;;5093149;28;20454;-78
2022/04/24 12:09:59;;;;;;;2.50;1.13;;;;;;;;;;5079039;28;20491;-76
2022/04/24 12:12:27;;;;;;;2.30;0.90;;;;;;;;;;5087732;28;20684;-79
2022/04/24 12:14:54;;;;;;;1.30;1.20;;;;;;;;;;5075565;28;20448;-78
2022/04/24 12:17:22;;;;;;;0.93;0.93;;;;;;;;;;5084302;28;20472;-79
2022/04/24 12:19:54;;;;;;;1.87;0.87;;;;;;;;;;5083154;28;20460;-76
2022/04/24 12:22:28;;;;;;;1.10;0.93;;;;;;;;;;5095590;28;20459;-78
2022/04/24 12:24:55;;;;;;;1.07;1.07;;;;;;;;;;5092330;28;20929;-78
2022/04/24 12:27:22;;;;;;;1.13;1.10;;;;;;;;;;5091585;28;20458;-77
2022/04/24 12:29:51;;;;;;;1.47;1.37;;;;;;;;;;5079518;28;20908;-76
2022/04/24 12:32:21;;;;;;;3.70;1.30;;;;;;;;;;5090058;28;20476;-76
2022/04/24 12:34:49;;;;;;;2.10;1.40;;;;;;;;;;5091388;28;20791;-77
2022/04/24 12:37:18;;;;;;;1.53;1.10;;;;;;;;;;5091318;28;20838;-77
2022/04/24 12:39:53;;;;;;;1.40;1.30;;;;;;;;;;5091782;28;20827;-77
2022/04/24 12:42:20;;;;;;;2.80;1.53;;;;;;;;;;5091018;28;20930;-78
2022/04/24 12:44:48;;;;;;;1.20;1.20;;;;;;;;;;5091165;28;20502;-77
2022/04/24 12:47:16;;;;;;;1.17;1.10;;;;;;;;;;5091503;28;20460;-79
2022/04/24 12:49:44;;;;;;;2.83;1.30;;;;;;;;;;5091354;28;20454;-76
2022/04/24 12:52:12;;;;;;;1.20;1.20;;;;;;;;;;5090953;28;20937;-77
2022/04/24 12:54:39;;;;;;;1.53;1.43;;;;;;;;;;5090596;28;20444;-78
2022/04/24 12:57:06;;;;;;;1.23;0.97;;;;;;;;;;5091132;28;20467;-75
2022/04/24 12:59:34;;;;;;;1.27;1.17;;;;;;;;;;5091006;28;20455;-77
2022/04/24 13:02:01;;;;;;;1.40;0.80;;;;;;;;;;5091093;28;20440;-78
2022/04/24 13:04:30;;;;;;;0.80;0.80;;;;;;;;;;5089450;28;20448;-77
2022/04/24 13:06:57;;;;;;;0.90;0.90;;;;;;;;;;5090139;28;20460;-76
2022/04/24 13:09:27;;;;;;;0.87;0.87;;;;;;;;;;5087631;28;20462;-77
2022/04/24 13:20:52;;;;;;;1.13;0.93;;;;;;;;;;5070912;28;20493;-78
2022/04/24 13:23:20;;;;;;;0.73;0.73;;;;;;;;;;5088729;28;20452;-75
2022/04/24 13:25:47;;;;;;;0.90;0.90;;;;;;;;;;5090575;28;20991;-77
2022/04/24 13:28:14;;;;;;;0.80;0.80;;;;;;;;;;5090201;28;20489;-74
2022/04/24 13:30:44;;;;;;;1.00;1.00;;;;;;;;;;5089400;28;20454;-76
2022/04/24 13:33:14;;;;;;;1.00;0.80;;;;;;;;;;5089718;28;20587;-75
2022/04/24 13:35:58;;;;;;;1.00;1.00;;;;;;;;;;5090120;28;20847;-75
2022/04/24 13:38:28;;;;;;;0.70;0.70;;;;;;;;;;5089952;28;20448;-75
2022/04/24 13:41:00;;;;;;;0.80;0.80;;;;;;;;;;5090618;28;20451;-76
2022/04/24 13:43:39;;;;;;;1.43;1.33;;;;;;;;;;5087331;28;20931;-77
2022/04/24 13:46:09;;;;;;;1.00;0.80;;;;;;;;;;5089040;28;21022;-76
2022/04/24 13:48:40;;;;;;;0.87;0.87;;;;;;;;;;5089847;28;20470;-76
2022/04/24 13:53:54;;;;;;;2.53;1.00;;;;;;;;;;5084840;28;20469;-76
2022/04/24 13:56:21;;;;;;;0.70;0.70;;;;;;;;;;5090109;28;20491;-76
2022/04/24 13:58:55;;;;;;;1.00;1.00;;;;;;;;;;5089947;28;21028;-75
2022/04/24 14:04:06;;;;;;;1.00;1.00;;;;;;;;;;5089891;28;20543;-76
2022/04/24 14:06:36;;;;;;;2.10;1.00;;;;;;;;;;5090141;28;20456;-75
2022/04/24 14:09:05;;;;;;;0.80;0.80;;;;;;;;;;5073393;28;21022;-75
2022/04/24 14:11:34;;;;;;;1.80;0.80;;;;;;;;;;5090016;28;21103;-75
2022/04/24 14:14:09;;;;;;;0.70;0.70;;;;;;;;;;5089386;28;20531;-77
2022/04/24 14:16:39;;;;;;;1.13;0.80;;;;;;;;;;5089720;28;20464;-77
2022/04/24 14:19:06;;;;;;;0.80;0.80;;;;;;;;;;5074287;28;20786;-78
2022/04/24 14:21:33;;;;;;;0.90;0.90;;;;;;;;;;5090578;28;20940;-78
2022/04/24 14:24:01;;;;;;;0.90;0.90;;;;;;;;;;5087058;28;20447;-76
2022/04/24 14:26:28;;;;;;;0.93;0.93;;;;;;;;;;5089781;28;20672;-77
2022/04/24 14:28:55;;;;;;;0.87;0.87;;;;;;;;;;5090155;28;20442;-78
2022/04/24 14:31:22;;;;;;;0.80;0.80;;;;;;;;;;5089939;28;20432;-78
2022/04/24 14:33:49;;;;;;;1.00;1.00;;;;;;;;;;5089749;28;20459;-78
2022/04/24 14:36:16;;;;;;;0.80;0.80;;;;;;;;;;5092045;28;20494;-77
2022/04/24 14:38:43;;;;;;;0.87;0.87;;;;;;;;;;5094645;28;20480;-78
2022/04/24 14:41:12;;;;;;;1.83;1.10;;;;;;;;;;5097322;28;20439;-77
2022/04/24 14:43:39;;;;;;;1.00;1.00;;;;;;;;;;5098376;28;20944;-79
2022/04/24 14:57:07;;;;;;;1.10;1.10;;;;;;;;;;5093210;28;20961;-77
2022/04/24 14:59:34;;;;;;;1.03;1.03;;;;;;;;;;5106097;28;20435;-77
2022/04/24 15:02:02;;;;;;;1.10;1.10;;;;;;;;;;5096762;28;20439;-76
2022/04/24 15:04:29;;;;;;;1.20;1.20;;;;;;;;;;5092759;28;20820;-77
2022/04/24 15:06:56;;;;;;;1.00;1.00;;;;;;;;;;5089769;28;20502;-75
2022/04/24 15:09:23;;;;;;;1.10;1.10;;;;;;;;;;5094145;28;20538;-76
2022/04/24 15:11:50;;;;;;;1.30;1.30;;;;;;;;;;5095516;28;21002;-76